Berkley, Michigan
Current Conditions -  °F | °C
As of 10:14 AM on Thursday 30 Oct 2014 (Local Time) from KVLL Reporting Station
Clear Clear  
Wind Chill: 44°   Ceiling: Unl
Heat Index: 44°   Visibility: 10mi
Dew Point: 31°   Wind: 3mph
Humidity: 61%   Direction: 300°WNW
Pressure: 30.15"   Gusts: NA
Location:  42.5°N, 83.18°W
Report Text: KVLL 301414Z AUTO 30003KT 10SM CLR 06/M01 A3015 RMK AO2 T00641006
Loading
Personal Weather Stations






























Interactive Weather Map
Tropical Storm Tracking
New forecast layout! Learn more

10-Day Weather Forecast

Advertisements
Track Severe Weather on mobile